sensor_id;sensor_type;location;lat;lon;timestamp;P1;durP1;ratioP1;P2;durP2;ratioP2
47764;SDS011;33529;49.242;8.670;2023-12-20T00:01:37;16.75;;;14.98;;
47764;SDS011;33529;49.242;8.670;2023-12-20T00:04:04;15.82;;;13.52;;
47764;SDS011;33529;49.242;8.670;2023-12-20T00:06:31;17.60;;;13.60;;
47764;SDS011;33529;49.242;8.670;2023-12-20T00:08:57;17.95;;;14.20;;
47764;SDS011;33529;49.242;8.670;2023-12-20T00:11:25;16.20;;;14.07;;
47764;SDS011;33529;49.242;8.670;2023-12-20T00:13:52;17.38;;;13.63;;
47764;SDS011;33529;49.242;8.670;2023-12-20T00:16:19;17.08;;;13.80;;
47764;SDS011;33529;49.242;8.670;2023-12-20T00:18:46;15.75;;;13.25;;
47764;SDS011;33529;49.242;8.670;2023-12-20T00:21:13;19.45;;;14.88;;
47764;SDS011;33529;49.242;8.670;2023-12-20T00:23:40;17.27;;;14.00;;
47764;SDS011;33529;49.242;8.670;2023-12-20T00:26:07;16.33;;;13.80;;
47764;SDS011;33529;49.242;8.670;2023-12-20T00:28:34;17.00;;;13.73;;
47764;SDS011;33529;49.242;8.670;2023-12-20T00:31:01;17.42;;;14.30;;
47764;SDS011;33529;49.242;8.670;2023-12-20T00:33:28;17.00;;;14.35;;
47764;SDS011;33529;49.242;8.670;2023-12-20T00:35:55;18.23;;;14.20;;
47764;SDS011;33529;49.242;8.670;2023-12-20T00:38:22;17.88;;;15.38;;
47764;SDS011;33529;49.242;8.670;2023-12-20T00:40:49;18.40;;;15.07;;
47764;SDS011;33529;49.242;8.670;2023-12-20T00:43:16;17.40;;;14.50;;
47764;SDS011;33529;49.242;8.670;2023-12-20T00:45:43;19.15;;;15.55;;
47764;SDS011;33529;49.242;8.670;2023-12-20T00:48:09;21.50;;;14.50;;
47764;SDS011;33529;49.242;8.670;2023-12-20T00:50:36;21.02;;;15.48;;
47764;SDS011;33529;49.242;8.670;2023-12-20T00:53:03;18.48;;;15.02;;
47764;SDS011;33529;49.242;8.670;2023-12-20T00:55:30;18.95;;;15.10;;
47764;SDS011;33529;49.242;8.670;2023-12-20T00:57:57;20.25;;;15.48;;
47764;SDS011;33529;49.242;8.670;2023-12-20T01:00:25;20.55;;;15.57;;
47764;SDS011;33529;49.242;8.670;2023-12-20T01:02:52;21.17;;;15.55;;
47764;SDS011;33529;49.242;8.670;2023-12-20T01:05:19;20.65;;;14.90;;
47764;SDS011;33529;49.242;8.670;2023-12-20T01:07:49;19.38;;;15.93;;
47764;SDS011;33529;49.242;8.670;2023-12-20T01:10:16;19.27;;;15.95;;
47764;SDS011;33529;49.242;8.670;2023-12-20T01:12:43;19.30;;;15.98;;
47764;SDS011;33529;49.242;8.670;2023-12-20T01:15:10;20.42;;;16.50;;
47764;SDS011;33529;49.242;8.670;2023-12-20T01:17:37;20.35;;;15.00;;
47764;SDS011;33529;49.242;8.670;2023-12-20T01:20:04;18.58;;;14.65;;
47764;SDS011;33529;49.242;8.670;2023-12-20T01:22:32;17.90;;;14.98;;
47764;SDS011;33529;49.242;8.670;2023-12-20T01:25:02;15.88;;;14.02;;
47764;SDS011;33529;49.242;8.670;2023-12-20T01:27:29;16.65;;;14.85;;
47764;SDS011;33529;49.242;8.670;2023-12-20T01:29:58;17.88;;;14.68;;
47764;SDS011;33529;49.242;8.670;2023-12-20T01:32:25;19.92;;;15.32;;
47764;SDS011;33529;49.242;8.670;2023-12-20T01:34:52;17.15;;;13.85;;
47764;SDS011;33529;49.242;8.670;2023-12-20T01:37:19;17.63;;;14.07;;
47764;SDS011;33529;49.242;8.670;2023-12-20T01:39:46;20.02;;;14.95;;
47764;SDS011;33529;49.242;8.670;2023-12-20T01:42:12;14.90;;;12.82;;
47764;SDS011;33529;49.242;8.670;2023-12-20T01:44:39;14.73;;;12.68;;
47764;SDS011;33529;49.242;8.670;2023-12-20T01:47:07;13.18;;;11.43;;
47764;SDS011;33529;49.242;8.670;2023-12-20T01:49:34;13.60;;;11.55;;
47764;SDS011;33529;49.242;8.670;2023-12-20T01:52:02;14.18;;;11.50;;
47764;SDS011;33529;49.242;8.670;2023-12-20T01:54:29;12.63;;;11.27;;
47764;SDS011;33529;49.242;8.670;2023-12-20T01:56:57;14.60;;;12.00;;
47764;SDS011;33529;49.242;8.670;2023-12-20T01:59:24;12.98;;;10.55;;
47764;SDS011;33529;49.242;8.670;2023-12-20T02:01:52;12.60;;;11.10;;
47764;SDS011;33529;49.242;8.670;2023-12-20T02:04:19;11.98;;;10.65;;
47764;SDS011;33529;49.242;8.670;2023-12-20T02:06:50;13.90;;;10.27;;
47764;SDS011;33529;49.242;8.670;2023-12-20T02:09:19;12.20;;;10.13;;
47764;SDS011;33529;49.242;8.670;2023-12-20T02:11:46;12.43;;;10.13;;
47764;SDS011;33529;49.242;8.670;2023-12-20T02:14:13;11.95;;;9.88;;
47764;SDS011;33529;49.242;8.670;2023-12-20T02:16:42;11.00;;;9.30;;
47764;SDS011;33529;49.242;8.670;2023-12-20T02:19:20;10.50;;;9.35;;
47764;SDS011;33529;49.242;8.670;2023-12-20T02:21:47;11.60;;;9.27;;
47764;SDS011;33529;49.242;8.670;2023-12-20T02:24:14;10.68;;;9.55;;
47764;SDS011;33529;49.242;8.670;2023-12-20T02:26:41;11.80;;;9.70;;
47764;SDS011;33529;49.242;8.670;2023-12-20T02:29:12;11.82;;;9.90;;
47764;SDS011;33529;49.242;8.670;2023-12-20T02:31:39;13.07;;;10.55;;
47764;SDS011;33529;49.242;8.670;2023-12-20T02:34:06;12.10;;;10.05;;
47764;SDS011;33529;49.242;8.670;2023-12-20T02:36:33;13.32;;;9.85;;
47764;SDS011;33529;49.242;8.670;2023-12-20T02:39:00;11.00;;;9.88;;
47764;SDS011;33529;49.242;8.670;2023-12-20T02:41:27;13.48;;;10.95;;
47764;SDS011;33529;49.242;8.670;2023-12-20T02:43:54;12.65;;;10.10;;
47764;SDS011;33529;49.242;8.670;2023-12-20T02:46:20;12.80;;;10.68;;
47764;SDS011;33529;49.242;8.670;2023-12-20T02:48:49;11.15;;;9.40;;
47764;SDS011;33529;49.242;8.670;2023-12-20T02:51:16;13.32;;;10.32;;
47764;SDS011;33529;49.242;8.670;2023-12-20T02:53:43;12.88;;;10.15;;
47764;SDS011;33529;49.242;8.670;2023-12-20T02:56:10;10.93;;;9.63;;
47764;SDS011;33529;49.242;8.670;2023-12-20T02:58:37;11.93;;;10.38;;
47764;SDS011;33529;49.242;8.670;2023-12-20T03:01:04;11.65;;;10.43;;
47764;SDS011;33529;49.242;8.670;2023-12-20T03:03:31;11.65;;;9.70;;
47764;SDS011;33529;49.242;8.670;2023-12-20T03:05:59;12.45;;;10.43;;
47764;SDS011;33529;49.242;8.670;2023-12-20T03:08:27;12.73;;;10.00;;
47764;SDS011;33529;49.242;8.670;2023-12-20T03:10:59;11.57;;;10.10;;
47764;SDS011;33529;49.242;8.670;2023-12-20T03:13:26;10.38;;;9.18;;
47764;SDS011;33529;49.242;8.670;2023-12-20T03:15:53;13.00;;;9.93;;
47764;SDS011;33529;49.242;8.670;2023-12-20T03:18:20;11.43;;;9.68;;
47764;SDS011;33529;49.242;8.670;2023-12-20T03:20:47;10.52;;;8.65;;
47764;SDS011;33529;49.242;8.670;2023-12-20T03:23:16;9.85;;;8.35;;
47764;SDS011;33529;49.242;8.670;2023-12-20T03:25:43;11.32;;;9.15;;
47764;SDS011;33529;49.242;8.670;2023-12-20T03:28:09;10.02;;;9.02;;
47764;SDS011;33529;49.242;8.670;2023-12-20T03:30:36;10.13;;;9.05;;
47764;SDS011;33529;49.242;8.670;2023-12-20T03:33:03;10.65;;;8.82;;
47764;SDS011;33529;49.242;8.670;2023-12-20T03:35:30;10.77;;;8.57;;
47764;SDS011;33529;49.242;8.670;2023-12-20T03:37:57;9.80;;;8.30;;
47764;SDS011;33529;49.242;8.670;2023-12-20T03:40:26;8.80;;;7.85;;
47764;SDS011;33529;49.242;8.670;2023-12-20T03:42:53;10.02;;;8.30;;
47764;SDS011;33529;49.242;8.670;2023-12-20T03:45:20;10.23;;;8.55;;
47764;SDS011;33529;49.242;8.670;2023-12-20T03:47:47;10.10;;;8.18;;
47764;SDS011;33529;49.242;8.670;2023-12-20T03:50:15;8.90;;;7.80;;
47764;SDS011;33529;49.242;8.670;2023-12-20T03:52:42;9.30;;;7.93;;
47764;SDS011;33529;49.242;8.670;2023-12-20T03:55:09;9.80;;;7.95;;
47764;SDS011;33529;49.242;8.670;2023-12-20T03:57:36;9.48;;;7.97;;
47764;SDS011;33529;49.242;8.670;2023-12-20T04:00:03;11.27;;;8.30;;
47764;SDS011;33529;49.242;8.670;2023-12-20T04:02:37;10.15;;;8.07;;
47764;SDS011;33529;49.242;8.670;2023-12-20T04:05:05;8.52;;;7.63;;
47764;SDS011;33529;49.242;8.670;2023-12-20T04:07:33;8.82;;;7.35;;
47764;SDS011;33529;49.242;8.670;2023-12-20T04:10:00;8.52;;;7.35;;
47764;SDS011;33529;49.242;8.670;2023-12-20T04:12:28;8.93;;;7.60;;
47764;SDS011;33529;49.242;8.670;2023-12-20T04:14:54;9.00;;;7.18;;
47764;SDS011;33529;49.242;8.670;2023-12-20T04:17:21;7.60;;;6.60;;
47764;SDS011;33529;49.242;8.670;2023-12-20T04:19:51;7.75;;;6.65;;
47764;SDS011;33529;49.242;8.670;2023-12-20T04:22:18;8.38;;;6.57;;
47764;SDS011;33529;49.242;8.670;2023-12-20T04:24:46;7.63;;;6.40;;
47764;SDS011;33529;49.242;8.670;2023-12-20T04:27:13;7.43;;;5.72;;
47764;SDS011;33529;49.242;8.670;2023-12-20T04:29:39;7.85;;;6.18;;
47764;SDS011;33529;49.242;8.670;2023-12-20T04:32:06;7.80;;;6.40;;
47764;SDS011;33529;49.242;8.670;2023-12-20T04:34:33;6.53;;;5.80;;
47764;SDS011;33529;49.242;8.670;2023-12-20T04:37:00;7.15;;;6.05;;
47764;SDS011;33529;49.242;8.670;2023-12-20T04:39:28;8.23;;;6.43;;
47764;SDS011;33529;49.242;8.670;2023-12-20T04:41:55;7.72;;;5.60;;
47764;SDS011;33529;49.242;8.670;2023-12-20T04:44:23;7.35;;;6.00;;
47764;SDS011;33529;49.242;8.670;2023-12-20T04:46:49;7.28;;;6.30;;
47764;SDS011;33529;49.242;8.670;2023-12-20T04:49:17;7.50;;;5.93;;
47764;SDS011;33529;49.242;8.670;2023-12-20T04:51:44;7.50;;;6.70;;
47764;SDS011;33529;49.242;8.670;2023-12-20T04:54:10;8.05;;;6.55;;
47764;SDS011;33529;49.242;8.670;2023-12-20T04:56:38;8.23;;;6.90;;
47764;SDS011;33529;49.242;8.670;2023-12-20T04:59:04;7.75;;;6.93;;
47764;SDS011;33529;49.242;8.670;2023-12-20T05:01:32;7.50;;;6.50;;
47764;SDS011;33529;49.242;8.670;2023-12-20T05:03:59;9.32;;;6.85;;
47764;SDS011;33529;49.242;8.670;2023-12-20T05:06:26;7.63;;;6.13;;
47764;SDS011;33529;49.242;8.670;2023-12-20T05:08:53;8.02;;;6.75;;
47764;SDS011;33529;49.242;8.670;2023-12-20T05:11:19;8.45;;;7.53;;
47764;SDS011;33529;49.242;8.670;2023-12-20T05:13:46;8.90;;;7.07;;
47764;SDS011;33529;49.242;8.670;2023-12-20T05:16:16;7.78;;;6.93;;
47764;SDS011;33529;49.242;8.670;2023-12-20T05:18:47;9.20;;;7.03;;
47764;SDS011;33529;49.242;8.670;2023-12-20T05:21:15;8.88;;;7.30;;
47764;SDS011;33529;49.242;8.670;2023-12-20T05:23:42;9.75;;;7.88;;
47764;SDS011;33529;49.242;8.670;2023-12-20T05:26:09;7.97;;;6.93;;
47764;SDS011;33529;49.242;8.670;2023-12-20T05:28:36;8.13;;;7.28;;
47764;SDS011;33529;49.242;8.670;2023-12-20T05:31:03;7.35;;;6.35;;
47764;SDS011;33529;49.242;8.670;2023-12-20T05:33:30;8.27;;;6.88;;
47764;SDS011;33529;49.242;8.670;2023-12-20T05:35:57;8.05;;;6.93;;
47764;SDS011;33529;49.242;8.670;2023-12-20T05:38:24;7.65;;;5.97;;
47764;SDS011;33529;49.242;8.670;2023-12-20T05:40:50;7.78;;;5.82;;
47764;SDS011;33529;49.242;8.670;2023-12-20T05:43:17;8.85;;;7.05;;
47764;SDS011;33529;49.242;8.670;2023-12-20T05:45:44;7.05;;;6.10;;
47764;SDS011;33529;49.242;8.670;2023-12-20T05:48:11;6.30;;;5.10;;
47764;SDS011;33529;49.242;8.670;2023-12-20T05:50:38;6.70;;;5.22;;
47764;SDS011;33529;49.242;8.670;2023-12-20T05:53:05;6.75;;;5.38;;
47764;SDS011;33529;49.242;8.670;2023-12-20T05:55:33;8.18;;;6.15;;
47764;SDS011;33529;49.242;8.670;2023-12-20T05:58:00;7.82;;;6.72;;
47764;SDS011;33529;49.242;8.670;2023-12-20T06:00:28;7.07;;;6.22;;
47764;SDS011;33529;49.242;8.670;2023-12-20T06:02:55;6.63;;;5.63;;
47764;SDS011;33529;49.242;8.670;2023-12-20T06:05:22;7.15;;;6.03;;
47764;SDS011;33529;49.242;8.670;2023-12-20T06:07:49;8.38;;;6.57;;
47764;SDS011;33529;49.242;8.670;2023-12-20T06:10:17;7.00;;;5.78;;
47764;SDS011;33529;49.242;8.670;2023-12-20T06:12:44;7.47;;;5.95;;
47764;SDS011;33529;49.242;8.670;2023-12-20T06:15:13;7.53;;;5.90;;
47764;SDS011;33529;49.242;8.670;2023-12-20T06:17:40;8.85;;;6.60;;
47764;SDS011;33529;49.242;8.670;2023-12-20T06:20:08;8.10;;;6.25;;
47764;SDS011;33529;49.242;8.670;2023-12-20T06:22:36;8.82;;;6.85;;
47764;SDS011;33529;49.242;8.670;2023-12-20T06:25:03;7.68;;;6.07;;
47764;SDS011;33529;49.242;8.670;2023-12-20T06:27:30;8.27;;;6.88;;
47764;SDS011;33529;49.242;8.670;2023-12-20T06:29:59;8.25;;;6.53;;
47764;SDS011;33529;49.242;8.670;2023-12-20T06:32:26;7.38;;;6.40;;
47764;SDS011;33529;49.242;8.670;2023-12-20T06:34:55;8.45;;;6.60;;
47764;SDS011;33529;49.242;8.670;2023-12-20T06:37:22;7.47;;;6.50;;
47764;SDS011;33529;49.242;8.670;2023-12-20T06:39:53;8.43;;;7.25;;
47764;SDS011;33529;49.242;8.670;2023-12-20T06:42:20;8.95;;;6.82;;
47764;SDS011;33529;49.242;8.670;2023-12-20T06:44:47;7.88;;;7.03;;
47764;SDS011;33529;49.242;8.670;2023-12-20T06:47:13;8.30;;;7.13;;
47764;SDS011;33529;49.242;8.670;2023-12-20T06:49:41;7.63;;;6.85;;
47764;SDS011;33529;49.242;8.670;2023-12-20T06:52:08;9.25;;;6.57;;
47764;SDS011;33529;49.242;8.670;2023-12-20T06:54:36;8.38;;;7.20;;
47764;SDS011;33529;49.242;8.670;2023-12-20T06:57:02;7.45;;;6.57;;
47764;SDS011;33529;49.242;8.670;2023-12-20T06:59:30;7.43;;;6.25;;
47764;SDS011;33529;49.242;8.670;2023-12-20T07:01:57;7.90;;;6.60;;
47764;SDS011;33529;49.242;8.670;2023-12-20T07:04:24;7.25;;;6.50;;
47764;SDS011;33529;49.242;8.670;2023-12-20T07:06:51;8.45;;;6.78;;
47764;SDS011;33529;49.242;8.670;2023-12-20T07:09:20;8.40;;;6.60;;
47764;SDS011;33529;49.242;8.670;2023-12-20T07:11:47;8.32;;;6.65;;
47764;SDS011;33529;49.242;8.670;2023-12-20T07:14:14;8.40;;;7.05;;
47764;SDS011;33529;49.242;8.670;2023-12-20T07:16:41;9.02;;;7.68;;
47764;SDS011;33529;49.242;8.670;2023-12-20T07:19:07;8.75;;;6.93;;
47764;SDS011;33529;49.242;8.670;2023-12-20T07:21:34;8.00;;;6.72;;
47764;SDS011;33529;49.242;8.670;2023-12-20T07:24:01;7.22;;;6.07;;
47764;SDS011;33529;49.242;8.670;2023-12-20T07:26:28;7.68;;;6.30;;
47764;SDS011;33529;49.242;8.670;2023-12-20T07:28:55;8.88;;;7.15;;
47764;SDS011;33529;49.242;8.670;2023-12-20T07:31:22;6.72;;;5.57;;
47764;SDS011;33529;49.242;8.670;2023-12-20T07:33:50;7.80;;;6.18;;
47764;SDS011;33529;49.242;8.670;2023-12-20T07:36:20;7.13;;;5.60;;
47764;SDS011;33529;49.242;8.670;2023-12-20T07:38:47;6.57;;;5.40;;
47764;SDS011;33529;49.242;8.670;2023-12-20T07:41:14;8.00;;;6.53;;
47764;SDS011;33529;49.242;8.670;2023-12-20T07:43:43;6.45;;;5.38;;
47764;SDS011;33529;49.242;8.670;2023-12-20T07:46:09;7.00;;;5.72;;
47764;SDS011;33529;49.242;8.670;2023-12-20T07:48:37;7.03;;;5.40;;
47764;SDS011;33529;49.242;8.670;2023-12-20T07:51:09;6.68;;;5.60;;
47764;SDS011;33529;49.242;8.670;2023-12-20T07:53:36;7.05;;;6.18;;
47764;SDS011;33529;49.242;8.670;2023-12-20T07:56:13;8.05;;;6.43;;
47764;SDS011;33529;49.242;8.670;2023-12-20T07:58:40;6.47;;;5.78;;
47764;SDS011;33529;49.242;8.670;2023-12-20T08:01:18;6.32;;;5.45;;
47764;SDS011;33529;49.242;8.670;2023-12-20T08:03:45;7.05;;;6.13;;
47764;SDS011;33529;49.242;8.670;2023-12-20T08:06:13;6.72;;;6.00;;
47764;SDS011;33529;49.242;8.670;2023-12-20T08:08:40;10.65;;;5.82;;
47764;SDS011;33529;49.242;8.670;2023-12-20T08:11:09;7.82;;;6.10;;
47764;SDS011;33529;49.242;8.670;2023-12-20T08:13:36;6.47;;;5.88;;
47764;SDS011;33529;49.242;8.670;2023-12-20T08:16:03;6.53;;;5.70;;
47764;SDS011;33529;49.242;8.670;2023-12-20T08:18:33;6.22;;;5.07;;
47764;SDS011;33529;49.242;8.670;2023-12-20T08:21:00;7.00;;;5.70;;
47764;SDS011;33529;49.242;8.670;2023-12-20T08:23:27;6.95;;;5.50;;
47764;SDS011;33529;49.242;8.670;2023-12-20T08:25:57;6.38;;;5.70;;
47764;SDS011;33529;49.242;8.670;2023-12-20T08:28:24;7.70;;;6.05;;
47764;SDS011;33529;49.242;8.670;2023-12-20T08:30:52;8.95;;;5.65;;
47764;SDS011;33529;49.242;8.670;2023-12-20T08:33:20;7.88;;;5.28;;
47764;SDS011;33529;49.242;8.670;2023-12-20T08:35:47;6.50;;;5.35;;
47764;SDS011;33529;49.242;8.670;2023-12-20T08:38:14;7.03;;;5.70;;
47764;SDS011;33529;49.242;8.670;2023-12-20T08:40:41;6.60;;;5.68;;
47764;SDS011;33529;49.242;8.670;2023-12-20T08:43:08;6.65;;;5.35;;
47764;SDS011;33529;49.242;8.670;2023-12-20T08:45:35;6.07;;;5.03;;
47764;SDS011;33529;49.242;8.670;2023-12-20T08:48:02;11.73;;;5.50;;
47764;SDS011;33529;49.242;8.670;2023-12-20T08:50:46;8.95;;;5.90;;
47764;SDS011;33529;49.242;8.670;2023-12-20T08:53:25;9.15;;;5.97;;
47764;SDS011;33529;49.242;8.670;2023-12-20T08:55:56;7.85;;;5.43;;
47764;SDS011;33529;49.242;8.670;2023-12-20T08:58:28;6.78;;;5.82;;
47764;SDS011;33529;49.242;8.670;2023-12-20T09:00:55;7.50;;;5.28;;
47764;SDS011;33529;49.242;8.670;2023-12-20T09:03:24;6.45;;;5.55;;
47764;SDS011;33529;49.242;8.670;2023-12-20T09:08:43;8.10;;;4.90;;
47764;SDS011;33529;49.242;8.670;2023-12-20T09:11:10;6.35;;;4.30;;
47764;SDS011;33529;49.242;8.670;2023-12-20T09:13:37;5.97;;;3.70;;
47764;SDS011;33529;49.242;8.670;2023-12-20T09:16:04;6.47;;;4.10;;
47764;SDS011;33529;49.242;8.670;2023-12-20T09:18:31;5.80;;;3.80;;
47764;SDS011;33529;49.242;8.670;2023-12-20T09:21:44;4.50;;;3.67;;
47764;SDS011;33529;49.242;8.670;2023-12-20T09:24:11;6.95;;;3.15;;
47764;SDS011;33529;49.242;8.670;2023-12-20T09:26:38;6.65;;;5.95;;
47764;SDS011;33529;49.242;8.670;2023-12-20T09:29:06;7.75;;;3.50;;
47764;SDS011;33529;49.242;8.670;2023-12-20T09:31:36;4.57;;;3.33;;
47764;SDS011;33529;49.242;8.670;2023-12-20T09:34:03;7.35;;;3.50;;
47764;SDS011;33529;49.242;8.670;2023-12-20T09:36:30;7.43;;;3.40;;
47764;SDS011;33529;49.242;8.670;2023-12-20T09:39:01;5.88;;;3.70;;
47764;SDS011;33529;49.242;8.670;2023-12-20T09:41:29;7.32;;;3.83;;
47764;SDS011;33529;49.242;8.670;2023-12-20T09:44:03;4.65;;;2.78;;
47764;SDS011;33529;49.242;8.670;2023-12-20T09:46:31;5.38;;;3.35;;
47764;SDS011;33529;49.242;8.670;2023-12-20T09:49:01;6.70;;;4.30;;
47764;SDS011;33529;49.242;8.670;2023-12-20T09:51:38;7.53;;;4.15;;
47764;SDS011;33529;49.242;8.670;2023-12-20T09:54:06;7.82;;;3.88;;
47764;SDS011;33529;49.242;8.670;2023-12-20T09:56:33;8.00;;;4.43;;
47764;SDS011;33529;49.242;8.670;2023-12-20T09:59:00;5.95;;;3.17;;
47764;SDS011;33529;49.242;8.670;2023-12-20T10:01:27;5.90;;;3.95;;
47764;SDS011;33529;49.242;8.670;2023-12-20T10:03:55;6.80;;;3.70;;
47764;SDS011;33529;49.242;8.670;2023-12-20T10:06:23;5.75;;;3.25;;
47764;SDS011;33529;49.242;8.670;2023-12-20T10:08:50;7.15;;;2.85;;
47764;SDS011;33529;49.242;8.670;2023-12-20T10:11:18;6.20;;;2.47;;
47764;SDS011;33529;49.242;8.670;2023-12-20T10:13:47;5.20;;;2.65;;
47764;SDS011;33529;49.242;8.670;2023-12-20T10:16:14;6.68;;;2.13;;
47764;SDS011;33529;49.242;8.670;2023-12-20T10:18:41;3.60;;;2.22;;
47764;SDS011;33529;49.242;8.670;2023-12-20T10:21:08;4.93;;;2.60;;
47764;SDS011;33529;49.242;8.670;2023-12-20T10:23:36;5.05;;;2.60;;
47764;SDS011;33529;49.242;8.670;2023-12-20T10:26:05;6.10;;;2.85;;
47764;SDS011;33529;49.242;8.670;2023-12-20T10:28:35;8.55;;;3.40;;
47764;SDS011;33529;49.242;8.670;2023-12-20T10:31:03;6.05;;;2.53;;
47764;SDS011;33529;49.242;8.670;2023-12-20T10:33:31;5.75;;;2.83;;
47764;SDS011;33529;49.242;8.670;2023-12-20T10:35:59;6.13;;;2.42;;
47764;SDS011;33529;49.242;8.670;2023-12-20T10:38:26;6.18;;;2.75;;
47764;SDS011;33529;49.242;8.670;2023-12-20T10:40:56;8.00;;;2.65;;
47764;SDS011;33529;49.242;8.670;2023-12-20T10:43:26;5.20;;;3.20;;
47764;SDS011;33529;49.242;8.670;2023-12-20T10:45:55;6.93;;;2.60;;
47764;SDS011;33529;49.242;8.670;2023-12-20T10:48:22;6.43;;;3.10;;
47764;SDS011;33529;49.242;8.670;2023-12-20T10:50:56;5.45;;;2.50;;
47764;SDS011;33529;49.242;8.670;2023-12-20T10:53:24;7.65;;;2.75;;
47764;SDS011;33529;49.242;8.670;2023-12-20T10:55:52;6.05;;;2.72;;
47764;SDS011;33529;49.242;8.670;2023-12-20T10:58:21;5.05;;;2.88;;
47764;SDS011;33529;49.242;8.670;2023-12-20T11:00:50;6.57;;;2.95;;
47764;SDS011;33529;49.242;8.670;2023-12-20T11:03:24;4.95;;;2.65;;
47764;SDS011;33529;49.242;8.670;2023-12-20T11:05:57;6.25;;;2.60;;
47764;SDS011;33529;49.242;8.670;2023-12-20T11:11:26;9.88;;;3.13;;
47764;SDS011;33529;49.242;8.670;2023-12-20T11:14:05;7.80;;;2.88;;
47764;SDS011;33529;49.242;8.670;2023-12-20T11:16:37;5.55;;;3.20;;
47764;SDS011;33529;49.242;8.670;2023-12-20T11:19:17;7.47;;;2.80;;
47764;SDS011;33529;49.242;8.670;2023-12-20T11:21:45;6.03;;;2.85;;
47764;SDS011;33529;49.242;8.670;2023-12-20T11:24:12;10.05;;;3.63;;
47764;SDS011;33529;49.242;8.670;2023-12-20T11:26:46;8.48;;;3.50;;
47764;SDS011;33529;49.242;8.670;2023-12-20T11:29:31;7.40;;;3.35;;
47764;SDS011;33529;49.242;8.670;2023-12-20T11:32:02;6.25;;;3.85;;
47764;SDS011;33529;49.242;8.670;2023-12-20T11:34:56;7.32;;;3.75;;
47764;SDS011;33529;49.242;8.670;2023-12-20T11:37:34;6.72;;;3.65;;
47764;SDS011;33529;49.242;8.670;2023-12-20T11:42:37;8.80;;;3.58;;
47764;SDS011;33529;49.242;8.670;2023-12-20T11:45:08;6.13;;;3.45;;
47764;SDS011;33529;49.242;8.670;2023-12-20T11:47:43;7.35;;;3.72;;
47764;SDS011;33529;49.242;8.670;2023-12-20T11:50:13;4.78;;;3.35;;
47764;SDS011;33529;49.242;8.670;2023-12-20T11:52:40;6.68;;;3.75;;
47764;SDS011;33529;49.242;8.670;2023-12-20T11:55:07;7.88;;;3.85;;
47764;SDS011;33529;49.242;8.670;2023-12-20T11:57:35;8.93;;;4.03;;
47764;SDS011;33529;49.242;8.670;2023-12-20T12:00:03;8.32;;;4.35;;
47764;SDS011;33529;49.242;8.670;2023-12-20T12:02:38;9.18;;;4.53;;
47764;SDS011;33529;49.242;8.670;2023-12-20T12:05:05;10.05;;;4.18;;
47764;SDS011;33529;49.242;8.670;2023-12-20T12:07:33;9.52;;;4.82;;
47764;SDS011;33529;49.242;8.670;2023-12-20T12:10:01;7.70;;;4.50;;
47764;SDS011;33529;49.242;8.670;2023-12-20T12:12:30;11.30;;;4.82;;
47764;SDS011;33529;49.242;8.670;2023-12-20T12:15:00;8.88;;;4.63;;
47764;SDS011;33529;49.242;8.670;2023-12-20T12:17:29;7.60;;;4.97;;
47764;SDS011;33529;49.242;8.670;2023-12-20T12:20:02;8.80;;;4.60;;
47764;SDS011;33529;49.242;8.670;2023-12-20T12:22:31;6.93;;;5.18;;
47764;SDS011;33529;49.242;8.670;2023-12-20T12:24:59;8.40;;;4.45;;
47764;SDS011;33529;49.242;8.670;2023-12-20T12:27:41;10.23;;;4.60;;
47764;SDS011;33529;49.242;8.670;2023-12-20T12:30:11;8.35;;;3.90;;
47764;SDS011;33529;49.242;8.670;2023-12-20T12:32:39;6.05;;;3.72;;
47764;SDS011;33529;49.242;8.670;2023-12-20T12:35:07;8.45;;;4.38;;
47764;SDS011;33529;49.242;8.670;2023-12-20T12:37:36;6.80;;;3.80;;
47764;SDS011;33529;49.242;8.670;2023-12-20T12:40:12;9.32;;;4.20;;
47764;SDS011;33529;49.242;8.670;2023-12-20T12:42:40;10.55;;;4.50;;
47764;SDS011;33529;49.242;8.670;2023-12-20T12:45:09;7.45;;;4.35;;
47764;SDS011;33529;49.242;8.670;2023-12-20T12:47:41;9.60;;;4.30;;
47764;SDS011;33529;49.242;8.670;2023-12-20T12:50:21;10.95;;;4.72;;
47764;SDS011;33529;49.242;8.670;2023-12-20T12:52:48;12.07;;;4.50;;
47764;SDS011;33529;49.242;8.670;2023-12-20T12:55:15;10.60;;;4.40;;
47764;SDS011;33529;49.242;8.670;2023-12-20T12:57:42;7.85;;;4.57;;
47764;SDS011;33529;49.242;8.670;2023-12-20T13:00:10;11.55;;;5.35;;
47764;SDS011;33529;49.242;8.670;2023-12-20T13:02:37;8.70;;;4.38;;
47764;SDS011;33529;49.242;8.670;2023-12-20T13:05:08;11.27;;;3.90;;
47764;SDS011;33529;49.242;8.670;2023-12-20T13:07:35;8.63;;;4.10;;
47764;SDS011;33529;49.242;8.670;2023-12-20T13:10:12;8.18;;;4.22;;
47764;SDS011;33529;49.242;8.670;2023-12-20T13:12:43;7.03;;;3.50;;
47764;SDS011;33529;49.242;8.670;2023-12-20T13:15:10;7.35;;;3.88;;
47764;SDS011;33529;49.242;8.670;2023-12-20T13:17:36;7.47;;;3.70;;
47764;SDS011;33529;49.242;8.670;2023-12-20T13:20:04;11.13;;;4.47;;
47764;SDS011;33529;49.242;8.670;2023-12-20T13:22:33;7.18;;;3.50;;
47764;SDS011;33529;49.242;8.670;2023-12-20T13:25:00;7.40;;;4.03;;
47764;SDS011;33529;49.242;8.670;2023-12-20T13:27:29;6.60;;;3.53;;
47764;SDS011;33529;49.242;8.670;2023-12-20T13:29:55;7.97;;;4.00;;
47764;SDS011;33529;49.242;8.670;2023-12-20T13:32:24;8.57;;;4.10;;
47764;SDS011;33529;49.242;8.670;2023-12-20T13:34:51;6.78;;;3.80;;
47764;SDS011;33529;49.242;8.670;2023-12-20T13:37:18;7.95;;;3.88;;
47764;SDS011;33529;49.242;8.670;2023-12-20T13:39:45;8.95;;;4.15;;
47764;SDS011;33529;49.242;8.670;2023-12-20T13:42:12;8.82;;;4.28;;
47764;SDS011;33529;49.242;8.670;2023-12-20T13:44:39;5.57;;;3.97;;
47764;SDS011;33529;49.242;8.670;2023-12-20T13:47:06;9.40;;;3.97;;
47764;SDS011;33529;49.242;8.670;2023-12-20T13:49:33;8.30;;;4.05;;
47764;SDS011;33529;49.242;8.670;2023-12-20T13:51:59;8.23;;;4.53;;
47764;SDS011;33529;49.242;8.670;2023-12-20T13:54:29;7.25;;;4.45;;
47764;SDS011;33529;49.242;8.670;2023-12-20T13:56:57;9.27;;;4.10;;
47764;SDS011;33529;49.242;8.670;2023-12-20T13:59:37;7.40;;;4.57;;
47764;SDS011;33529;49.242;8.670;2023-12-20T14:02:04;10.63;;;4.30;;
47764;SDS011;33529;49.242;8.670;2023-12-20T14:04:31;9.05;;;4.88;;
47764;SDS011;33529;49.242;8.670;2023-12-20T14:07:08;8.18;;;4.68;;
47764;SDS011;33529;49.242;8.670;2023-12-20T14:09:37;9.82;;;4.95;;
47764;SDS011;33529;49.242;8.670;2023-12-20T14:12:04;9.82;;;4.32;;
47764;SDS011;33529;49.242;8.670;2023-12-20T14:14:31;7.22;;;4.35;;
47764;SDS011;33529;49.242;8.670;2023-12-20T14:16:58;7.97;;;4.32;;
47764;SDS011;33529;49.242;8.670;2023-12-20T14:19:25;10.25;;;5.05;;
47764;SDS011;33529;49.242;8.670;2023-12-20T14:21:52;15.77;;;5.43;;
47764;SDS011;33529;49.242;8.670;2023-12-20T14:24:19;7.47;;;4.30;;
47764;SDS011;33529;49.242;8.670;2023-12-20T14:26:45;6.90;;;4.35;;
47764;SDS011;33529;49.242;8.670;2023-12-20T14:29:12;9.75;;;3.92;;
47764;SDS011;33529;49.242;8.670;2023-12-20T14:31:39;10.02;;;4.15;;
47764;SDS011;33529;49.242;8.670;2023-12-20T14:34:07;7.75;;;4.07;;
47764;SDS011;33529;49.242;8.670;2023-12-20T14:36:35;9.32;;;3.95;;
47764;SDS011;33529;49.242;8.670;2023-12-20T14:39:02;11.18;;;4.22;;
47764;SDS011;33529;49.242;8.670;2023-12-20T14:41:30;10.93;;;4.55;;
47764;SDS011;33529;49.242;8.670;2023-12-20T14:43:58;7.78;;;3.85;;
47764;SDS011;33529;49.242;8.670;2023-12-20T14:46:26;9.98;;;3.80;;
47764;SDS011;33529;49.242;8.670;2023-12-20T14:48:54;7.53;;;3.78;;
47764;SDS011;33529;49.242;8.670;2023-12-20T14:51:21;8.57;;;4.03;;
47764;SDS011;33529;49.242;8.670;2023-12-20T14:53:49;9.95;;;3.85;;
47764;SDS011;33529;49.242;8.670;2023-12-20T14:56:15;7.70;;;3.97;;